Flight Number: EUR3078 Duration: 11:00
Departure: Madrid / Barajas (LEMD) at 07:00 Distance: 3442 Nm
Arrival: San Juan / Luis Munoz (TJSJ) at 18:00 Equipment: B777

Weather Information
Madrid / Barajas, Spain (LEMD) 40-27N 003-33W 582M May 20, 2018 - 09:30 AM EDT / 2018.05.20 1330 UTC
Wind: from the E (090 degrees) at 3 MPH (3 KT):0
Visibility: greater than 7 mile(s):0
Sky conditions: partly cloudy Temperature: 69 F (21 C) Dew Point: 46 F (8 C) Relative Humidity: 43% Pressure (altimeter): 29.94 in. Hg (1014 hPa)
ob: LEMD 201330Z 09003KT 9999 SCT070 21/08 Q1014 NOSIG cycle: 13
Sunrise: 04:56 Sunset: 19:25 (UTC)

San Juan, Luis Munoz Marin International Airport, PR, United States (TJSJ) 18-27N 066-00W May 20, 2018 - 09:56 AM EDT / 2018.05.20 1356 UTC
Wind: from the E (080 degrees) at 25 MPH (22 KT) gusting to 30 MPH (26 KT):0
Visibility: 10 mile(s):0
Sky conditions: partly cloudy Temperature: 82.9 F (28.3 C) Dew Point: 72.0 F (22.2 C) Relative Humidity: 69% Pressure (altimeter): 30.08 in. Hg (1018 hPa)
ob: TJSJ 201356Z 08022G26KT 10SM FEW026 SCT033 SCT070 28/22 A3008 RMK AO2 PK WND 09029/1327 SLP184 VCSH NW T02830222 cycle: 14
Sunrise: 09:51 Sunset: 22:49 (UTC)

TAF:2018/05/20 12:36 TAF TJSJ 201132Z 2012/2112 11010KT P6SM FEW025 SCT040 FM201400 08018G28KT P6SM VCSH FEW025 SCT050 FM202300 11010KT P6SM SCT025

This route has never been flown.

Route map